Terminal Aerodrome Forecast
Issued by NWS

Home | Current Version | Previous Version | Text Only | Print | Product List | Glossary On
Versions: 1 2 3 4 5 6 7 8 9 10 11 12 13 14 15
000
FTUS43 KUNR 290500
TAFGCC
TAF
KGCC 290522Z 2906/3006 36010KT 1 1/2SM -SN OVC015
     FM291200 02011KT 2SM -SN OVC015
     FM292100 01001KT P6SM BKN025=

USA.gov is the U.S. government's official web portal to all federal, state and local government web resources and services.